Vliegveldwaarnemingen Nederland - (AUTO) METAR

Luchtvaartmeteorologische informatie voor operationeel gebruik en vluchtvoorbereiding is beschikbaar op www.luchtvaartmeteo.nl.

ZCZC
SA171055 EHFS     VLISSINGEN AWS   NLD   8 m.
METAR EHFS 171055Z AUTO 21016KT 9999 SCT008/// BKN009/// OVC011///
18/17 Q1013=

ZCZC
SA171125 EHKD     DE KOOY/DE KOOY   NLD   1 m.
METAR EHKD 171125Z AUTO 21017KT 160V230 9999 -DZ FEW010 SCT013
FEW015CB BKN019 18/16 Q1012 REDZ
GRN 20017KT 9999 FEW012 SCT040 BKN100 TEMPO 4500 RADZ SCT009 BKN015=

ZCZC
SA171125 EHFD     F3-FB-1   NLD   50 m.
METAR EHFD 171125Z AUTO 20019KT 6000 -RA FEW004/// SCT009///
BKN024/// 16/15 Q1008=

ZCZC
SA171125 EHAM     AMSTERDAM/SCHIPHOL   NLD   -3 m.
METAR EHAM 171125Z 19010KT 9999 FEW006 SCT012 BKN025 18/16 Q1013
BECMG BKN012=

ZCZC
SA171125 EHVL     VLIELAND   NLD   10 m.
METAR EHVL 171125Z AUTO 20019KT 9999 FEW011 FEW015CB BKN019 OVC022
18/16 Q1011 REDZ WHT=

ZCZC
SA171125 EHJR     K13-A   NLD   37 m.
METAR EHJR 171125Z NIL=

ZCZC
SA171125 EHLW     LEEUWARDEN/LEEUWARDEN   NLD   1 m.
METAR EHLW 171125Z AUTO 20013KT 160V250 9999 DZ FEW008 BKN015CB
BKN019 18/16 Q1012
WHT 21010KT 9999 FEW015 BKN045 TEMPO 4500 -RADZ SCT010 BKN015=

ZCZC
SA171125 EHDL     ARNHEM/DEELEN   NLD   48 m.
METAR EHDL 171125Z AUTO 20011KT 130V250 4500 RA FEW008 BKN015CB
BKN032 OVC037 17/16 Q1014 GRN=

ZCZC
SA171125 EHGG     GRONINGEN/EELDE   NLD   5 m.
METAR EHGG 171125Z AUTO 23010KT 190V260 8000 DZRA FEW015CB SCT023
19/17 Q1013 TEMPO 7000 RA=

ZCZC
SA171125 EHSC     LICHTEILAND GOEREE   NLD   22 m.
METAR EHSC 171125Z NIL=

ZCZC
SA171125 EHSA     EURO PLATFORM   NLD   19 m.
METAR EHSA 171125Z NIL=

ZCZC
SA171125 EHWO     WOENSDRECHT/WOENSDRECHT   NLD   19 m.
METAR EHWO 171125Z AUTO 21009KT 190V260 9999 FEW008 BKN009 OVC011
18/17 Q1014
GRN 23012KT 9999 -RA OVC009 TEMPO 5000 RADZ FEW005 BKN007=

ZCZC
SA171125 EHRD     ROTTERDAM/THE HAGUE AIRPORT   NLD   -5 m.
METAR EHRD 171125Z AUTO 21010KT 160V240 9999 OVC011 18/16 Q1013 TEMPO
7000 BECMG BKN008=

ZCZC
SA171125 EHGR     GILZE-RIJEN/GILZE-RIJEN   NLD   14 m.
METAR EHGR 171125Z AUTO 21009KT 150V260 9999 FEW010 BKN012 OVC014
18/16 Q1014
GRN 21010KT 99999 SCT009 BKN015 TEMPO 4500 -DZRA FEW005 SCT006
BKN008=

ZCZC
SA171125 EHEH     EINDHOVEN/EINDHOVEN   NLD   22 m.
METAR EHEH 171125Z AUTO 24017KT 190V280 3000 R21/P3000D -RADZ FEW015
BKN025 BKN029 19/17 Q1014
YLO 22014G24KT 9999 SCT025 OVC030 TEMPO 4000 RA FEW012 SCT020 BKN025=

ZCZC
SA171125 EHVK     VOLKEL/VOLKEL   NLD   21 m.
METAR EHVK 171125Z AUTO 20007KT 170V240 9999 OVC033 20/16 Q1014
BLU 22009KT 9999 BKN040 OVC050=

ZCZC
SA171125 EHBK     MAASTRICHT/MAASTRICHT-AACHEN   NLD   114 m.
METAR EHBK 171125Z AUTO 22019KT 9999 DZRA OVC036 21/14 Q1015 RERA
REDZ NOSIG=

ZCZC
SA171125 EHFZ     F16-A   NLD   43 m.
METAR EHFZ 171125Z AUTO 20024KT 4100 -SHRA FEW005 SCT007 BKN008 17/16
Q1009=

ZCZC
SA171125 EHKV     K14-FA-1C   NLD   41 m.
METAR EHKV 171125Z AUTO 20025KT 9999 FEW006 SCT008 BKN009 18/17
Q1010=

ZCZC
SA171125 EHMG     L9-FF-1   NLD   44 m.
METAR EHMG 171125Z AUTO 21030KT 9999 DZ FEW010 SCT019 BKN022 18/16
Q1010=

ZCZC
SA171125 EHMA     AWG-1   NLD   40 m.
METAR EHMA 171125Z AUTO 21020KT 180V240 6000 -RA FEW013 FEW015CB
SCT039 18/16 Q1012 RERA REDZ=

ZCZC
SA171125 EHDV     D15-FA-1   NLD   42 m.
METAR EHDV 171125Z AUTO 24017KT //// // FEW006/// BKN007/// OVC008///
17/16 Q1008 RE//=

ZCZC
SA171125 EHAK     A12-CPP   NLD   48 m.
METAR EHAK 171125Z AUTO 20019KT 8000 -DZ SCT005/// BKN006///
BKN009/// 17/15 Q1007 REDZ=

ZCZC
SA171125 EHQE     HOORN-A   NLD   50 m.
METAR EHQE 171125Z AUTO ///27KT 9999 FEW007 SCT009 BKN010 18/16
Q1011=

ZCZC
SA171125 EHJA     J6-A   NLD   45 m.
METAR EHJA 171125Z AUTO 22019KT 9999 SCT007/// BKN008/// 17/16 Q1009=

ZCZC
SA171125 EHPG     P11-B   NLD   41 m.
METAR EHPG 171125Z AUTO 20025KT 120V290 9999 SCT005 OVC007 18/17
Q1010=

ZCZC
SA171125 EHHW     BUITENGAATS/BG-OHVS2      42 m.
METAR EHHW 171125Z AUTO 21017KT 170V230 8000 -RADZ ///////// 18/15
Q1012=

17/08/2017 13.30 uur LT